createdAt,value
2024-01-20T00:02:06.968Z,39.2
2024-01-20T00:05:08.945Z,40.2
2024-01-20T00:08:10.973Z,35.3
2024-01-20T00:11:12.994Z,37.7
2024-01-20T00:14:14.873Z,37.5
2024-01-20T00:17:20.714Z,41.4
2024-01-20T00:20:18.726Z,37.7
2024-01-20T00:23:20.725Z,39.9
2024-01-20T00:26:22.695Z,40.6
2024-01-20T00:29:24.601Z,40.7
2024-01-20T00:32:26.586Z,39.7
2024-01-20T00:35:28.503Z,38.2
2024-01-20T00:38:30.519Z,42.6
2024-01-20T00:41:32.459Z,40.6
2024-01-20T00:44:34.384Z,38.9
2024-01-20T00:47:37.786Z,41.6
2024-01-20T00:50:38.278Z,40.8
2024-01-20T00:56:42.183Z,35.4
2024-01-20T00:59:44.120Z,44
2024-01-20T01:02:46.086Z,41.8
2024-01-20T01:05:48.051Z,38.6
2024-01-20T01:08:49.941Z,39.9
2024-01-20T01:11:51.936Z,42
2024-01-20T01:14:53.900Z,42.5
2024-01-20T01:17:55.801Z,37.7
2024-01-20T01:20:57.743Z,41.6
2024-01-20T01:23:59.755Z,38.9
2024-01-20T01:27:01.772Z,38.3
2024-01-20T01:30:03.657Z,37.8
2024-01-20T01:36:07.480Z,41.7
2024-01-20T01:39:09.452Z,39.7
2024-01-20T01:42:11.411Z,43.6
2024-01-20T01:45:13.415Z,42.5
2024-01-20T01:48:15.404Z,39.6
2024-01-20T01:51:17.569Z,43.4
2024-01-20T01:54:19.298Z,40
2024-01-20T01:57:21.632Z,48.3
2024-01-20T02:00:23.201Z,42.4
2024-01-20T02:06:27.077Z,40.7
2024-01-20T02:09:29.092Z,35.1
2024-01-20T02:12:30.946Z,40.6
2024-01-20T02:15:32.930Z,35.7
2024-01-20T02:18:34.866Z,47.8
2024-01-20T02:21:36.760Z,41.3
2024-01-20T02:24:38.741Z,47.4
2024-01-20T02:27:40.736Z,46
2024-01-20T02:30:42.637Z,49.6
2024-01-20T02:33:44.712Z,49
2024-01-20T02:36:46.552Z,53.4
2024-01-20T02:39:48.519Z,45.7
2024-01-20T02:42:50.427Z,45.2
2024-01-20T02:45:52.439Z,43
2024-01-20T02:48:54.519Z,45.9
2024-01-20T02:51:56.328Z,47.4
2024-01-20T02:58:00.299Z,42.4
2024-01-20T03:01:02.285Z,50
2024-01-20T03:04:04.298Z,44.4
2024-01-20T03:07:06.080Z,48.7
2024-01-20T03:10:08.072Z,48.3
2024-01-20T03:13:10.057Z,44.5
2024-01-20T03:16:11.951Z,43.8
2024-01-20T03:19:13.997Z,49
2024-01-20T03:22:15.902Z,43.3
2024-01-20T03:25:17.855Z,56.9
2024-01-20T03:28:19.931Z,50.9
2024-01-20T03:31:21.783Z,49
2024-01-20T03:34:23.868Z,56.9
2024-01-20T03:37:25.692Z,45.7
2024-01-20T03:40:29.112Z,53.6
2024-01-20T03:43:29.608Z,45.9
2024-01-20T03:46:31.518Z,45.5
2024-01-20T03:49:33.686Z,50.3
2024-01-20T03:52:35.428Z,56.4
2024-01-20T03:55:37.508Z,48.3
2024-01-20T03:58:39.323Z,50.4
2024-01-20T04:01:41.268Z,49.5
2024-01-20T04:04:43.317Z,47.5
2024-01-20T04:07:45.182Z,44.1
2024-01-20T04:10:47.147Z,46.4
2024-01-20T04:13:49.070Z,52.3
2024-01-20T04:16:51.061Z,51.3
2024-01-20T04:19:53.022Z,45.3
2024-01-20T04:22:54.911Z,48.2
2024-01-20T04:25:56.867Z,48.9
2024-01-20T04:28:58.953Z,48.3
2024-01-20T04:32:00.863Z,48.8
2024-01-20T04:35:02.819Z,51.6
2024-01-20T04:38:04.724Z,48.8
2024-01-20T04:41:06.734Z,51.5
2024-01-20T04:44:08.674Z,55.2
2024-01-20T04:47:10.574Z,54.7
2024-01-20T04:50:12.633Z,57.5
2024-01-20T04:53:14.543Z,52.3
2024-01-20T04:56:16.424Z,48.3
2024-01-20T04:59:18.361Z,54.8
2024-01-20T05:02:20.309Z,62.4
2024-01-20T05:05:22.481Z,52.9
2024-01-20T05:08:24.402Z,52.2
2024-01-20T05:11:26.282Z,54.7
2024-01-20T05:14:28.375Z,53.2
2024-01-20T05:17:30.424Z,55.5
2024-01-20T05:20:32.357Z,50.3
2024-01-20T05:23:34.314Z,55.4
2024-01-20T05:26:36.271Z,53.8
2024-01-20T05:29:38.167Z,52.5
2024-01-20T05:32:40.210Z,53.6
2024-01-20T05:35:42.067Z,54.1
2024-01-20T05:38:44.035Z,48
2024-01-20T05:41:45.960Z,52.3
2024-01-20T05:44:47.963Z,59
2024-01-20T05:47:49.904Z,49
2024-01-20T05:50:51.956Z,50.3
2024-01-20T05:56:55.858Z,58.2
2024-01-20T05:59:57.832Z,52.3
2024-01-20T06:06:01.700Z,62.2
2024-01-20T06:09:03.692Z,55
2024-01-20T06:12:05.626Z,50.7
2024-01-20T06:15:07.524Z,52.5
2024-01-20T06:18:09.583Z,56.3
2024-01-20T06:21:11.498Z,53.2
2024-01-20T06:24:13.412Z,53.6
2024-01-20T06:27:15.392Z,49.1
2024-01-20T06:30:17.305Z,58.6
2024-01-20T06:36:21.430Z,51.4
2024-01-20T06:39:23.201Z,49.4
2024-01-20T06:42:25.170Z,55.5
2024-01-20T06:45:27.207Z,48.2
2024-01-20T06:48:29.204Z,56.6
2024-01-20T06:51:30.990Z,53.2
2024-01-20T06:54:32.958Z,59.6
2024-01-20T06:57:34.874Z,56.4
2024-01-20T07:00:36.865Z,54.8
2024-01-20T07:03:38.937Z,57.3
2024-01-20T07:06:40.788Z,57.2
2024-01-20T07:09:42.740Z,57.6
2024-01-20T07:12:44.681Z,59.4
2024-01-20T07:15:46.597Z,60.5
2024-01-20T07:18:48.823Z,55.5
2024-01-20T07:21:50.570Z,56.3
2024-01-20T07:24:52.540Z,58.4
2024-01-20T07:27:54.468Z,59.4
2024-01-20T07:30:56.430Z,61.7
2024-01-20T07:33:58.408Z,59
2024-01-20T07:37:00.260Z,59
2024-01-20T07:40:02.229Z,54.1
2024-01-20T07:43:04.178Z,61.2
2024-01-20T07:46:06.116Z,58.8
2024-01-20T07:49:08.203Z,57.7
2024-01-20T07:52:09.990Z,51.6
2024-01-20T07:55:11.967Z,61.1
2024-01-20T07:58:13.981Z,58.4
2024-01-20T08:01:15.978Z,58
2024-01-20T08:04:17.810Z,58.8
2024-01-20T08:07:19.826Z,53.4
2024-01-20T08:10:21.717Z,52.3
2024-01-20T08:13:23.634Z,59.1
2024-01-20T08:16:25.616Z,53.4
2024-01-20T08:19:27.692Z,47.9
2024-01-20T08:22:29.499Z,44.1
2024-01-20T08:25:31.488Z,51.9
2024-01-20T08:28:33.435Z,51.8
2024-01-20T08:31:35.384Z,54.3
2024-01-20T08:34:37.378Z,56.9
2024-01-20T08:37:39.353Z,51.8
2024-01-20T08:40:41.197Z,46.7
2024-01-20T08:43:43.274Z,51.7
2024-01-20T08:46:45.095Z,41.8
2024-01-20T08:49:47.186Z,41.7
2024-01-20T08:52:49.110Z,42.6
2024-01-20T08:55:51.061Z,42.7
2024-01-20T08:58:52.914Z,45.3
2024-01-20T09:01:54.879Z,42.5
2024-01-20T09:04:56.841Z,40.1
2024-01-20T09:07:58.835Z,41.5
2024-01-20T09:11:00.758Z,41.8
2024-01-20T09:14:02.788Z,45.2
2024-01-20T09:17:04.684Z,43.5
2024-01-20T09:20:06.725Z,43.3
2024-01-20T09:23:08.587Z,38.6
2024-01-20T09:26:10.502Z,38.2
2024-01-20T09:29:12.491Z,38.1
2024-01-20T09:32:14.401Z,37.3
2024-01-20T09:35:16.308Z,39.8
2024-01-20T09:38:18.331Z,40.4
2024-01-20T09:41:20.208Z,40
2024-01-20T09:44:22.183Z,39.1
2024-01-20T09:47:24.130Z,41.1
2024-01-20T09:50:26.064Z,42.1
2024-01-20T09:53:28.018Z,40.7
2024-01-20T09:56:29.993Z,42.8
2024-01-20T09:59:31.940Z,40.8
2024-01-20T10:02:33.941Z,35.3
2024-01-20T10:05:35.897Z,38.6
2024-01-20T10:08:38.510Z,49.4
2024-01-20T10:11:39.718Z,38.8
2024-01-20T10:14:41.658Z,42.4
2024-01-20T10:17:43.684Z,42
2024-01-20T10:20:47.414Z,42.1
2024-01-20T10:26:49.456Z,44.7
2024-01-20T10:29:51.906Z,47.3
2024-01-20T10:32:58.022Z,43.3
2024-01-20T10:35:55.368Z,42.5
2024-01-20T10:38:57.337Z,41.8
2024-01-20T10:41:59.291Z,45.8
2024-01-20T10:45:01.238Z,37
2024-01-20T10:48:03.496Z,38.7
2024-01-20T10:51:05.273Z,37.5
2024-01-20T10:54:07.452Z,37.2
2024-01-20T10:57:09.125Z,40.8
2024-01-20T11:00:11.090Z,33.6
2024-01-20T11:06:15.062Z,40.2
2024-01-20T11:09:16.946Z,37.8
2024-01-20T11:12:18.872Z,39.5
2024-01-20T11:15:20.973Z,38.1
2024-01-20T11:18:22.826Z,38.3
2024-01-20T11:21:24.721Z,39
2024-01-20T11:24:26.702Z,40.5
2024-01-20T11:27:28.609Z,37.5
2024-01-20T11:30:30.614Z,37.7
2024-01-20T11:33:32.639Z,41
2024-01-20T11:36:34.533Z,36.9
2024-01-20T11:39:36.499Z,42.5
2024-01-20T11:42:38.393Z,41.8
2024-01-20T11:45:40.378Z,42
2024-01-20T11:48:42.314Z,38.6
2024-01-20T11:51:44.282Z,39.8
2024-01-20T11:54:46.227Z,33.7
2024-01-20T11:57:48.168Z,34.8
2024-01-20T12:00:50.195Z,40.1
2024-01-20T12:03:52.259Z,41.4
2024-01-20T12:06:54.063Z,34.3
2024-01-20T12:09:55.925Z,36
2024-01-20T12:12:57.883Z,39.2
2024-01-20T12:15:59.824Z,34.1
2024-01-20T12:19:01.861Z,36.3
2024-01-20T12:22:03.733Z,32.8
2024-01-20T12:25:05.714Z,38.4
2024-01-20T12:28:07.726Z,32.3
2024-01-20T12:31:10.867Z,30.9
2024-01-20T12:34:11.636Z,40.5
2024-01-20T12:37:13.464Z,34
2024-01-20T12:40:15.452Z,36.5
2024-01-20T12:43:17.395Z,35.9
2024-01-20T12:46:19.377Z,41.9
2024-01-20T12:49:21.375Z,38.9
2024-01-20T12:52:23.292Z,41.9
2024-01-20T12:55:25.188Z,39
2024-01-20T12:58:27.150Z,37.3
2024-01-20T13:01:30.076Z,33.9
2024-01-20T13:04:31.284Z,34.1
2024-01-20T13:07:33.044Z,38.1
2024-01-20T13:10:34.965Z,35
2024-01-20T13:13:36.987Z,36.6
2024-01-20T13:16:38.852Z,42.1
2024-01-20T13:19:40.914Z,32.9
2024-01-20T13:22:42.788Z,36.1
2024-01-20T13:25:44.729Z,42.2
2024-01-20T13:28:46.721Z,39.4
2024-01-20T13:31:48.693Z,37.2
2024-01-20T13:34:50.676Z,34.7
2024-01-20T13:37:52.590Z,35
2024-01-20T13:40:54.541Z,38.4
2024-01-20T13:43:56.527Z,36
2024-01-20T13:46:58.473Z,42.2
2024-01-20T13:50:00.508Z,38.1
2024-01-20T13:53:02.405Z,36.5
2024-01-20T13:56:04.261Z,36.7
2024-01-20T13:59:06.230Z,31.3
2024-01-20T14:02:08.167Z,40.8
2024-01-20T14:05:10.114Z,37
2024-01-20T14:08:12.060Z,36.2
2024-01-20T14:11:14.019Z,42.6
2024-01-20T14:14:15.957Z,39.2
2024-01-20T14:17:17.932Z,37.8
2024-01-20T14:20:19.978Z,39.5
2024-01-20T14:23:22.010Z,35.4
2024-01-20T14:26:23.808Z,38.2
2024-01-20T14:29:25.692Z,40
2024-01-20T14:32:27.728Z,42.4
2024-01-20T14:35:29.606Z,38.6
2024-01-20T14:38:31.641Z,48.8
2024-01-20T14:41:33.544Z,38.9
2024-01-20T14:44:35.502Z,42.2
2024-01-20T14:47:37.494Z,46.5
2024-01-20T14:50:39.476Z,44.1
2024-01-20T14:53:41.382Z,46.5
2024-01-20T14:56:43.328Z,42.6
2024-01-20T14:59:45.301Z,47.6
2024-01-20T15:02:47.278Z,45.7
2024-01-20T15:05:52.197Z,44.3
2024-01-20T15:08:54.148Z,43.9
2024-01-20T15:11:56.101Z,51
2024-01-20T15:14:58.069Z,47.6
2024-01-20T15:18:02.650Z,46.4
2024-01-20T15:21:02.292Z,49.4
2024-01-20T15:24:04.194Z,54
2024-01-20T15:27:06.168Z,48.6
2024-01-20T15:30:08.172Z,47.2
2024-01-20T15:36:12.063Z,49.3
2024-01-20T15:39:14.273Z,48.4
2024-01-20T15:42:16.432Z,46.3
2024-01-20T15:45:18.447Z,48.8
2024-01-20T15:48:20.447Z,54.3
2024-01-20T15:51:22.367Z,47.2
2024-01-20T15:54:24.276Z,49.5
2024-01-20T15:57:26.565Z,48.5
2024-01-20T16:00:32.606Z,55.4
2024-01-20T16:03:36.148Z,53.6
2024-01-20T16:07:01.549Z,51.3
2024-01-20T16:09:43.763Z,54.2
2024-01-20T16:12:45.492Z,56.6
2024-01-20T16:15:47.498Z,54.6
2024-01-20T16:18:52.666Z,56.3
2024-01-20T16:21:54.484Z,60.2
2024-01-20T16:25:05.325Z,58.2
2024-01-20T16:27:57.589Z,58.9
2024-01-20T16:31:23.248Z,59.3
2024-01-20T16:34:10.319Z,60.6
2024-01-20T16:37:12.284Z,63.3
2024-01-20T16:40:14.245Z,59.7
2024-01-20T16:43:16.230Z,59.5
2024-01-20T16:46:18.214Z,59.8
2024-01-20T16:49:20.284Z,67.2
2024-01-20T16:52:22.084Z,64.9
2024-01-20T16:55:26.352Z,64.2
2024-01-20T16:58:26.537Z,67.8
2024-01-20T17:01:28.465Z,69
2024-01-20T17:04:30.641Z,59.2
2024-01-20T17:07:32.473Z,64.2
2024-01-20T17:10:34.436Z,56.9
2024-01-20T17:13:36.392Z,75.6
2024-01-20T17:16:38.387Z,62.9
2024-01-20T17:19:43.309Z,64
2024-01-20T17:22:46.301Z,65.1
2024-01-20T17:25:48.864Z,60.5
2024-01-20T17:28:50.807Z,59.3
2024-01-20T17:31:52.706Z,60.2
2024-01-20T17:34:54.791Z,64.3
2024-01-20T17:37:57.094Z,62.3
2024-01-20T17:41:02.343Z,61.6
2024-01-20T17:44:04.398Z,71.6
2024-01-20T17:47:06.492Z,64.5
2024-01-20T17:50:08.499Z,71.4
2024-01-20T17:53:10.584Z,70.9
2024-01-20T17:56:12.578Z,66.5
2024-01-20T17:59:14.521Z,71.4
2024-01-20T18:02:16.555Z,66.8
2024-01-20T18:05:18.553Z,76.4
2024-01-20T18:08:20.533Z,71.4
2024-01-20T18:11:22.486Z,78.3
2024-01-20T18:14:28.809Z,70
2024-01-20T18:17:32.687Z,76.5
2024-01-20T18:20:32.928Z,78
2024-01-20T18:23:34.782Z,74.6
2024-01-20T18:26:36.811Z,77.4
2024-01-20T18:29:41.573Z,75.8
2024-01-20T18:32:43.759Z,66.9
2024-01-20T18:35:45.759Z,75.4
2024-01-20T18:38:48.104Z,82.5
2024-01-20T18:44:54.969Z,78.8
2024-01-20T18:47:57.296Z,88.9
2024-01-20T18:50:59.117Z,80.5
2024-01-20T18:54:01.136Z,82.8
2024-01-20T18:57:03.198Z,88.1
2024-01-20T19:03:07.164Z,74.7
2024-01-20T19:06:11.016Z,79
2024-01-20T19:09:15.555Z,80.7
2024-01-20T19:12:17.533Z,82.4
2024-01-20T19:15:19.574Z,76.1
2024-01-20T19:18:21.672Z,87
2024-01-20T19:24:25.394Z,87.6
2024-01-20T19:27:27.523Z,93.2
2024-01-20T19:30:29.739Z,83.6
2024-01-20T19:33:32.096Z,87.7
2024-01-20T19:36:37.018Z,85.4
2024-01-20T19:39:39.034Z,75
2024-01-20T19:42:40.994Z,113.7
2024-01-20T19:45:42.923Z,88.3
2024-01-20T19:48:44.922Z,89.1
2024-01-20T19:51:46.886Z,99.5
2024-01-20T19:54:48.813Z,98.3
2024-01-20T19:57:51.522Z,91.8
2024-01-20T20:00:53.543Z,90.6
2024-01-20T20:03:55.312Z,77.9
2024-01-20T20:06:57.215Z,85.8
2024-01-20T20:09:59.161Z,89.2
2024-01-20T20:13:01.109Z,87.6
2024-01-20T20:16:03.233Z,82.7
2024-01-20T20:19:08.030Z,86.6
2024-01-20T20:22:10.211Z,76
2024-01-20T20:25:12.120Z,73.9
2024-01-20T20:28:14.478Z,67.3
2024-01-20T20:31:16.424Z,66.5
2024-01-20T20:34:18.466Z,69.4
2024-01-20T20:37:20.395Z,66.6
2024-01-20T20:40:22.519Z,75.7
2024-01-20T20:43:24.355Z,81.2
2024-01-20T20:46:26.339Z,80
2024-01-20T20:49:28.442Z,77.5
2024-01-20T20:52:30.320Z,69.3
2024-01-20T20:55:32.714Z,81.3
2024-01-20T20:58:34.605Z,80.5
2024-01-20T21:01:36.614Z,86.2
2024-01-20T21:04:38.804Z,84.2
2024-01-20T21:07:40.701Z,87.2
2024-01-20T21:10:45.462Z,80.4
2024-01-20T21:13:45.112Z,92.2
2024-01-20T21:16:50.263Z,75.4
2024-01-20T21:19:52.257Z,78.5
2024-01-20T21:22:54.415Z,84.2
2024-01-20T21:26:02.228Z,80.4
2024-01-20T21:29:04.218Z,80.8
2024-01-20T21:32:06.140Z,75
2024-01-20T21:35:08.160Z,76.2
2024-01-20T21:38:10.145Z,80.6
2024-01-20T21:41:14.482Z,79.8
2024-01-20T21:44:14.520Z,66.2
2024-01-20T21:47:16.654Z,74.4
2024-01-20T21:50:21.891Z,78.9
2024-01-20T21:53:23.787Z,83.3
2024-01-20T21:56:25.903Z,88
2024-01-20T21:59:27.858Z,91.1
2024-01-20T22:02:29.821Z,85.3
2024-01-20T22:05:31.832Z,118.8
2024-01-20T22:08:33.827Z,112.7
2024-01-20T22:11:36.111Z,115.2
2024-01-20T22:14:38.185Z,116.4
2024-01-20T22:17:40.170Z,103.4
2024-01-20T22:20:42.162Z,82.7
2024-01-20T22:23:44.052Z,85.5
2024-01-20T22:26:46.039Z,81.5
2024-01-20T22:29:48.234Z,90
2024-01-20T22:32:50.134Z,92.3
2024-01-20T22:35:52.046Z,91.9
2024-01-20T22:38:54.203Z,91.8
2024-01-20T22:44:57.953Z,80.1
2024-01-20T22:47:59.986Z,82.9
2024-01-20T22:51:01.840Z,96.6
2024-01-20T22:54:03.787Z,85.1
2024-01-20T22:57:05.946Z,76.6
2024-01-20T23:03:09.760Z,75.4
2024-01-20T23:06:11.765Z,75.5
2024-01-20T23:09:13.610Z,76.8
2024-01-20T23:12:16.920Z,68.8
2024-01-20T23:15:17.489Z,78.1
2024-01-20T23:18:19.548Z,86.4
2024-01-20T23:24:23.403Z,84.8
2024-01-20T23:27:25.356Z,81.4
2024-01-20T23:30:27.298Z,76.9
2024-01-20T23:33:29.480Z,78.1
2024-01-20T23:36:31.203Z,86.8
2024-01-20T23:39:33.128Z,65.2
2024-01-20T23:42:35.075Z,74.5
2024-01-20T23:45:37.009Z,76.4
2024-01-20T23:48:38.944Z,68.8
2024-01-20T23:54:42.939Z,68.3
2024-01-20T23:57:44.864Z,60.9
